sensor_id;sensor_type;location;lat;lon;timestamp;P1;durP1;ratioP1;P2;durP2;ratioP2
19084;SDS011;9675;51.538;6.728;2023-11-19T00:02:19;11.60;;;5.80;;
19084;SDS011;9675;51.538;6.728;2023-11-19T00:04:46;10.13;;;5.57;;
19084;SDS011;9675;51.538;6.728;2023-11-19T00:07:13;8.13;;;5.20;;
19084;SDS011;9675;51.538;6.728;2023-11-19T00:09:41;7.97;;;4.80;;
19084;SDS011;9675;51.538;6.728;2023-11-19T00:12:08;8.47;;;5.27;;
19084;SDS011;9675;51.538;6.728;2023-11-19T00:14:35;7.43;;;4.57;;
19084;SDS011;9675;51.538;6.728;2023-11-19T00:17:04;7.37;;;4.43;;
19084;SDS011;9675;51.538;6.728;2023-11-19T00:19:31;9.77;;;5.30;;
19084;SDS011;9675;51.538;6.728;2023-11-19T00:21:58;7.37;;;5.17;;
19084;SDS011;9675;51.538;6.728;2023-11-19T00:24:27;7.40;;;4.47;;
19084;SDS011;9675;51.538;6.728;2023-11-19T00:26:55;7.07;;;4.50;;
19084;SDS011;9675;51.538;6.728;2023-11-19T00:29:22;8.73;;;5.93;;
19084;SDS011;9675;51.538;6.728;2023-11-19T00:31:50;11.77;;;4.13;;
19084;SDS011;9675;51.538;6.728;2023-11-19T00:34:18;7.87;;;4.47;;
19084;SDS011;9675;51.538;6.728;2023-11-19T00:36:47;6.30;;;4.97;;
19084;SDS011;9675;51.538;6.728;2023-11-19T00:39:14;11.33;;;5.33;;
19084;SDS011;9675;51.538;6.728;2023-11-19T00:41:42;6.73;;;4.40;;
19084;SDS011;9675;51.538;6.728;2023-11-19T00:44:11;6.17;;;4.23;;
19084;SDS011;9675;51.538;6.728;2023-11-19T00:46:38;8.57;;;6.20;;
19084;SDS011;9675;51.538;6.728;2023-11-19T00:49:05;7.27;;;4.83;;
19084;SDS011;9675;51.538;6.728;2023-11-19T00:51:33;7.47;;;4.63;;
19084;SDS011;9675;51.538;6.728;2023-11-19T00:54:00;10.17;;;6.17;;
19084;SDS011;9675;51.538;6.728;2023-11-19T00:56:27;7.77;;;5.03;;
19084;SDS011;9675;51.538;6.728;2023-11-19T00:58:54;9.90;;;5.07;;
19084;SDS011;9675;51.538;6.728;2023-11-19T01:01:22;7.83;;;4.00;;
19084;SDS011;9675;51.538;6.728;2023-11-19T01:03:49;8.07;;;4.77;;
19084;SDS011;9675;51.538;6.728;2023-11-19T01:06:26;4.90;;;3.27;;
19084;SDS011;9675;51.538;6.728;2023-11-19T01:08:55;5.83;;;4.33;;
19084;SDS011;9675;51.538;6.728;2023-11-19T01:11:24;8.97;;;4.43;;
19084;SDS011;9675;51.538;6.728;2023-11-19T01:13:51;7.03;;;4.10;;
19084;SDS011;9675;51.538;6.728;2023-11-19T01:16:19;6.83;;;4.40;;
19084;SDS011;9675;51.538;6.728;2023-11-19T01:18:47;5.77;;;4.13;;
19084;SDS011;9675;51.538;6.728;2023-11-19T01:21:14;6.97;;;3.80;;
19084;SDS011;9675;51.538;6.728;2023-11-19T01:23:41;7.77;;;3.90;;
19084;SDS011;9675;51.538;6.728;2023-11-19T01:26:10;6.73;;;3.37;;
19084;SDS011;9675;51.538;6.728;2023-11-19T01:28:38;3.77;;;2.67;;
19084;SDS011;9675;51.538;6.728;2023-11-19T01:31:09;6.73;;;4.33;;
19084;SDS011;9675;51.538;6.728;2023-11-19T01:33:37;6.50;;;3.30;;
19084;SDS011;9675;51.538;6.728;2023-11-19T01:36:05;4.70;;;3.07;;
19084;SDS011;9675;51.538;6.728;2023-11-19T01:38:33;3.90;;;3.00;;
19084;SDS011;9675;51.538;6.728;2023-11-19T01:41:00;4.10;;;2.73;;
19084;SDS011;9675;51.538;6.728;2023-11-19T01:43:33;7.07;;;3.93;;
19084;SDS011;9675;51.538;6.728;2023-11-19T01:46:02;9.80;;;3.73;;
19084;SDS011;9675;51.538;6.728;2023-11-19T01:48:31;5.27;;;3.40;;
19084;SDS011;9675;51.538;6.728;2023-11-19T01:51:01;8.10;;;3.70;;
19084;SDS011;9675;51.538;6.728;2023-11-19T01:53:30;9.23;;;4.17;;
19084;SDS011;9675;51.538;6.728;2023-11-19T01:55:58;4.20;;;3.40;;
19084;SDS011;9675;51.538;6.728;2023-11-19T01:58:27;4.90;;;3.30;;
19084;SDS011;9675;51.538;6.728;2023-11-19T02:00:57;19.67;;;8.00;;
19084;SDS011;9675;51.538;6.728;2023-11-19T02:03:25;11.73;;;4.27;;
19084;SDS011;9675;51.538;6.728;2023-11-19T02:05:54;8.73;;;4.50;;
19084;SDS011;9675;51.538;6.728;2023-11-19T02:08:21;6.13;;;3.90;;
19084;SDS011;9675;51.538;6.728;2023-11-19T02:10:48;7.57;;;3.30;;
19084;SDS011;9675;51.538;6.728;2023-11-19T02:13:16;9.33;;;4.13;;
19084;SDS011;9675;51.538;6.728;2023-11-19T02:15:43;17.23;;;6.80;;
19084;SDS011;9675;51.538;6.728;2023-11-19T02:18:18;26.37;;;10.00;;
19084;SDS011;9675;51.538;6.728;2023-11-19T02:20:47;10.83;;;5.43;;
19084;SDS011;9675;51.538;6.728;2023-11-19T02:23:15;16.13;;;6.43;;
19084;SDS011;9675;51.538;6.728;2023-11-19T02:25:45;12.47;;;5.87;;
19084;SDS011;9675;51.538;6.728;2023-11-19T02:28:30;14.00;;;5.50;;
19084;SDS011;9675;51.538;6.728;2023-11-19T02:30:58;10.67;;;4.97;;
19084;SDS011;9675;51.538;6.728;2023-11-19T02:33:25;24.10;;;9.87;;
19084;SDS011;9675;51.538;6.728;2023-11-19T02:35:52;17.37;;;6.57;;
19084;SDS011;9675;51.538;6.728;2023-11-19T02:38:19;21.33;;;9.70;;
19084;SDS011;9675;51.538;6.728;2023-11-19T02:40:47;12.23;;;3.80;;
19084;SDS011;9675;51.538;6.728;2023-11-19T02:43:14;16.00;;;6.03;;
19084;SDS011;9675;51.538;6.728;2023-11-19T02:45:42;11.30;;;3.77;;
19084;SDS011;9675;51.538;6.728;2023-11-19T02:48:10;11.33;;;5.47;;
19084;SDS011;9675;51.538;6.728;2023-11-19T02:50:39;14.93;;;3.80;;
19084;SDS011;9675;51.538;6.728;2023-11-19T02:53:06;12.33;;;4.10;;
19084;SDS011;9675;51.538;6.728;2023-11-19T02:55:33;7.80;;;2.67;;
19084;SDS011;9675;51.538;6.728;2023-11-19T02:58:03;8.00;;;2.20;;
19084;SDS011;9675;51.538;6.728;2023-11-19T03:00:39;11.30;;;2.47;;
19084;SDS011;9675;51.538;6.728;2023-11-19T03:03:15;8.93;;;2.50;;
19084;SDS011;9675;51.538;6.728;2023-11-19T03:05:45;6.93;;;2.23;;
19084;SDS011;9675;51.538;6.728;2023-11-19T03:08:13;11.87;;;2.37;;
19084;SDS011;9675;51.538;6.728;2023-11-19T03:10:41;7.57;;;1.97;;
19084;SDS011;9675;51.538;6.728;2023-11-19T03:13:11;8.13;;;2.23;;
19084;SDS011;9675;51.538;6.728;2023-11-19T03:15:40;9.63;;;2.27;;
19084;SDS011;9675;51.538;6.728;2023-11-19T03:18:07;11.53;;;2.13;;
19084;SDS011;9675;51.538;6.728;2023-11-19T03:20:36;7.17;;;1.83;;
19084;SDS011;9675;51.538;6.728;2023-11-19T03:23:03;6.60;;;1.93;;
19084;SDS011;9675;51.538;6.728;2023-11-19T03:25:31;10.70;;;2.20;;
19084;SDS011;9675;51.538;6.728;2023-11-19T03:27:59;7.43;;;2.17;;
19084;SDS011;9675;51.538;6.728;2023-11-19T03:30:27;6.77;;;1.97;;
19084;SDS011;9675;51.538;6.728;2023-11-19T03:32:55;4.83;;;1.37;;
19084;SDS011;9675;51.538;6.728;2023-11-19T03:35:23;12.47;;;2.20;;
19084;SDS011;9675;51.538;6.728;2023-11-19T03:37:51;8.70;;;2.57;;
19084;SDS011;9675;51.538;6.728;2023-11-19T03:40:18;7.90;;;2.37;;
19084;SDS011;9675;51.538;6.728;2023-11-19T03:42:45;10.83;;;2.27;;
19084;SDS011;9675;51.538;6.728;2023-11-19T03:45:13;11.90;;;1.70;;
19084;SDS011;9675;51.538;6.728;2023-11-19T03:47:40;6.60;;;1.80;;
19084;SDS011;9675;51.538;6.728;2023-11-19T03:50:09;7.63;;;1.77;;
19084;SDS011;9675;51.538;6.728;2023-11-19T03:52:36;11.67;;;2.00;;
19084;SDS011;9675;51.538;6.728;2023-11-19T03:55:05;16.33;;;2.67;;
19084;SDS011;9675;51.538;6.728;2023-11-19T03:57:33;7.37;;;2.00;;
19084;SDS011;9675;51.538;6.728;2023-11-19T04:00:00;18.00;;;3.00;;
19084;SDS011;9675;51.538;6.728;2023-11-19T04:02:34;11.67;;;2.63;;
19084;SDS011;9675;51.538;6.728;2023-11-19T04:05:01;17.17;;;2.70;;
19084;SDS011;9675;51.538;6.728;2023-11-19T04:07:28;8.43;;;2.20;;
19084;SDS011;9675;51.538;6.728;2023-11-19T04:09:55;8.40;;;1.93;;
19084;SDS011;9675;51.538;6.728;2023-11-19T04:12:23;12.30;;;1.90;;
19084;SDS011;9675;51.538;6.728;2023-11-19T04:14:50;17.17;;;2.90;;
19084;SDS011;9675;51.538;6.728;2023-11-19T04:17:17;13.67;;;2.33;;
19084;SDS011;9675;51.538;6.728;2023-11-19T04:19:44;13.67;;;2.00;;
19084;SDS011;9675;51.538;6.728;2023-11-19T04:22:11;8.63;;;1.93;;
19084;SDS011;9675;51.538;6.728;2023-11-19T04:24:39;5.87;;;2.33;;
19084;SDS011;9675;51.538;6.728;2023-11-19T04:27:09;12.07;;;2.00;;
19084;SDS011;9675;51.538;6.728;2023-11-19T04:29:37;17.47;;;2.97;;
19084;SDS011;9675;51.538;6.728;2023-11-19T04:32:04;13.67;;;2.07;;
19084;SDS011;9675;51.538;6.728;2023-11-19T04:34:32;13.40;;;1.73;;
19084;SDS011;9675;51.538;6.728;2023-11-19T04:37:00;21.83;;;3.00;;
19084;SDS011;9675;51.538;6.728;2023-11-19T04:39:28;15.33;;;3.00;;
19084;SDS011;9675;51.538;6.728;2023-11-19T04:41:55;26.13;;;2.67;;
19084;SDS011;9675;51.538;6.728;2023-11-19T04:44:22;15.87;;;2.40;;
19084;SDS011;9675;51.538;6.728;2023-11-19T04:46:51;16.27;;;2.50;;
19084;SDS011;9675;51.538;6.728;2023-11-19T04:49:18;21.77;;;2.47;;
19084;SDS011;9675;51.538;6.728;2023-11-19T04:51:45;15.03;;;1.87;;
19084;SDS011;9675;51.538;6.728;2023-11-19T04:54:13;11.10;;;1.87;;
19084;SDS011;9675;51.538;6.728;2023-11-19T04:56:40;15.40;;;2.43;;
19084;SDS011;9675;51.538;6.728;2023-11-19T04:59:11;20.83;;;2.37;;
19084;SDS011;9675;51.538;6.728;2023-11-19T05:01:39;16.33;;;2.60;;
19084;SDS011;9675;51.538;6.728;2023-11-19T05:04:07;7.77;;;2.10;;
19084;SDS011;9675;51.538;6.728;2023-11-19T05:06:34;12.77;;;2.47;;
19084;SDS011;9675;51.538;6.728;2023-11-19T05:09:02;14.50;;;2.67;;
19084;SDS011;9675;51.538;6.728;2023-11-19T05:11:32;24.43;;;3.17;;
19084;SDS011;9675;51.538;6.728;2023-11-19T05:13:59;13.63;;;1.90;;
19084;SDS011;9675;51.538;6.728;2023-11-19T05:16:28;14.10;;;3.00;;
19084;SDS011;9675;51.538;6.728;2023-11-19T05:18:55;15.33;;;2.33;;
19084;SDS011;9675;51.538;6.728;2023-11-19T05:21:23;4.33;;;1.73;;
19084;SDS011;9675;51.538;6.728;2023-11-19T05:23:50;17.63;;;2.87;;
19084;SDS011;9675;51.538;6.728;2023-11-19T05:26:17;10.90;;;2.43;;
19084;SDS011;9675;51.538;6.728;2023-11-19T05:28:46;22.03;;;3.60;;
19084;SDS011;9675;51.538;6.728;2023-11-19T05:31:13;23.07;;;3.30;;
19084;SDS011;9675;51.538;6.728;2023-11-19T05:33:42;22.77;;;2.80;;
19084;SDS011;9675;51.538;6.728;2023-11-19T05:36:10;17.47;;;3.00;;
19084;SDS011;9675;51.538;6.728;2023-11-19T05:38:40;23.50;;;3.30;;
19084;SDS011;9675;51.538;6.728;2023-11-19T05:41:07;23.57;;;3.57;;
19084;SDS011;9675;51.538;6.728;2023-11-19T05:43:34;15.60;;;2.73;;
19084;SDS011;9675;51.538;6.728;2023-11-19T05:46:01;13.13;;;2.03;;
19084;SDS011;9675;51.538;6.728;2023-11-19T05:48:28;15.50;;;2.43;;
19084;SDS011;9675;51.538;6.728;2023-11-19T05:50:55;21.37;;;3.30;;
19084;SDS011;9675;51.538;6.728;2023-11-19T05:53:22;9.07;;;2.40;;
19084;SDS011;9675;51.538;6.728;2023-11-19T05:55:51;15.57;;;3.13;;
19084;SDS011;9675;51.538;6.728;2023-11-19T05:58:22;20.30;;;3.40;;
19084;SDS011;9675;51.538;6.728;2023-11-19T06:00:53;22.40;;;3.23;;
19084;SDS011;9675;51.538;6.728;2023-11-19T06:03:20;23.90;;;3.30;;
19084;SDS011;9675;51.538;6.728;2023-11-19T06:05:48;15.53;;;3.20;;
19084;SDS011;9675;51.538;6.728;2023-11-19T06:08:15;14.43;;;2.10;;
19084;SDS011;9675;51.538;6.728;2023-11-19T06:10:43;15.90;;;2.77;;
19084;SDS011;9675;51.538;6.728;2023-11-19T06:13:13;17.77;;;3.23;;
19084;SDS011;9675;51.538;6.728;2023-11-19T06:15:41;14.43;;;2.37;;
19084;SDS011;9675;51.538;6.728;2023-11-19T06:18:08;18.50;;;2.40;;
19084;SDS011;9675;51.538;6.728;2023-11-19T06:20:37;20.23;;;3.40;;
19084;SDS011;9675;51.538;6.728;2023-11-19T06:23:04;11.40;;;2.73;;
19084;SDS011;9675;51.538;6.728;2023-11-19T06:25:31;18.07;;;3.33;;
19084;SDS011;9675;51.538;6.728;2023-11-19T06:28:00;21.00;;;3.37;;
19084;SDS011;9675;51.538;6.728;2023-11-19T06:30:28;34.27;;;4.60;;
19084;SDS011;9675;51.538;6.728;2023-11-19T06:32:57;19.80;;;4.13;;
19084;SDS011;9675;51.538;6.728;2023-11-19T06:35:24;26.33;;;3.03;;
19084;SDS011;9675;51.538;6.728;2023-11-19T06:37:51;27.67;;;3.40;;
19084;SDS011;9675;51.538;6.728;2023-11-19T06:40:18;21.00;;;3.17;;
19084;SDS011;9675;51.538;6.728;2023-11-19T06:42:45;18.60;;;3.00;;
19084;SDS011;9675;51.538;6.728;2023-11-19T06:45:12;15.17;;;2.93;;
19084;SDS011;9675;51.538;6.728;2023-11-19T06:47:41;14.10;;;2.60;;
19084;SDS011;9675;51.538;6.728;2023-11-19T06:50:08;33.47;;;3.10;;
19084;SDS011;9675;51.538;6.728;2023-11-19T06:52:37;15.73;;;2.97;;
19084;SDS011;9675;51.538;6.728;2023-11-19T06:55:05;16.17;;;2.87;;
19084;SDS011;9675;51.538;6.728;2023-11-19T06:57:33;13.33;;;2.93;;
19084;SDS011;9675;51.538;6.728;2023-11-19T07:00:00;13.07;;;2.70;;
19084;SDS011;9675;51.538;6.728;2023-11-19T07:02:28;23.37;;;3.50;;
19084;SDS011;9675;51.538;6.728;2023-11-19T07:04:56;25.40;;;3.83;;
19084;SDS011;9675;51.538;6.728;2023-11-19T07:07:25;21.80;;;3.83;;
19084;SDS011;9675;51.538;6.728;2023-11-19T07:09:52;15.37;;;2.50;;
19084;SDS011;9675;51.538;6.728;2023-11-19T07:12:19;9.67;;;2.67;;
19084;SDS011;9675;51.538;6.728;2023-11-19T07:14:46;22.30;;;3.50;;
19084;SDS011;9675;51.538;6.728;2023-11-19T07:17:13;18.10;;;3.30;;
19084;SDS011;9675;51.538;6.728;2023-11-19T07:19:40;14.40;;;2.50;;
19084;SDS011;9675;51.538;6.728;2023-11-19T07:22:08;19.53;;;2.83;;
19084;SDS011;9675;51.538;6.728;2023-11-19T07:24:38;32.43;;;6.83;;
19084;SDS011;9675;51.538;6.728;2023-11-19T07:27:06;20.60;;;3.73;;
19084;SDS011;9675;51.538;6.728;2023-11-19T07:29:33;12.30;;;3.10;;
19084;SDS011;9675;51.538;6.728;2023-11-19T07:32:01;28.00;;;5.07;;
19084;SDS011;9675;51.538;6.728;2023-11-19T07:34:28;15.13;;;3.47;;
19084;SDS011;9675;51.538;6.728;2023-11-19T07:36:55;37.20;;;4.53;;
19084;SDS011;9675;51.538;6.728;2023-11-19T07:39:26;37.87;;;4.70;;
19084;SDS011;9675;51.538;6.728;2023-11-19T07:41:52;40.27;;;8.43;;
19084;SDS011;9675;51.538;6.728;2023-11-19T07:44:20;24.63;;;3.77;;
19084;SDS011;9675;51.538;6.728;2023-11-19T07:46:47;24.73;;;4.07;;
19084;SDS011;9675;51.538;6.728;2023-11-19T07:49:14;31.40;;;5.00;;
19084;SDS011;9675;51.538;6.728;2023-11-19T07:51:41;29.87;;;5.13;;
19084;SDS011;9675;51.538;6.728;2023-11-19T07:54:08;33.67;;;5.13;;
19084;SDS011;9675;51.538;6.728;2023-11-19T07:56:36;29.60;;;5.30;;
19084;SDS011;9675;51.538;6.728;2023-11-19T07:59:03;22.33;;;4.33;;
19084;SDS011;9675;51.538;6.728;2023-11-19T08:01:31;19.97;;;4.47;;
19084;SDS011;9675;51.538;6.728;2023-11-19T08:03:58;30.10;;;4.80;;
19084;SDS011;9675;51.538;6.728;2023-11-19T08:06:26;28.93;;;4.67;;
19084;SDS011;9675;51.538;6.728;2023-11-19T08:08:54;24.67;;;4.40;;
19084;SDS011;9675;51.538;6.728;2023-11-19T08:11:21;29.63;;;3.93;;
19084;SDS011;9675;51.538;6.728;2023-11-19T08:13:49;31.17;;;6.33;;
19084;SDS011;9675;51.538;6.728;2023-11-19T08:16:16;25.53;;;3.03;;
19084;SDS011;9675;51.538;6.728;2023-11-19T08:18:43;13.73;;;3.57;;
19084;SDS011;9675;51.538;6.728;2023-11-19T08:21:10;32.33;;;3.97;;
19084;SDS011;9675;51.538;6.728;2023-11-19T08:23:38;23.53;;;3.97;;
19084;SDS011;9675;51.538;6.728;2023-11-19T08:26:06;28.10;;;2.97;;
19084;SDS011;9675;51.538;6.728;2023-11-19T08:28:33;21.63;;;2.80;;
19084;SDS011;9675;51.538;6.728;2023-11-19T08:31:02;20.60;;;3.53;;
19084;SDS011;9675;51.538;6.728;2023-11-19T08:33:30;34.10;;;3.73;;
19084;SDS011;9675;51.538;6.728;2023-11-19T08:35:57;29.70;;;3.87;;
19084;SDS011;9675;51.538;6.728;2023-11-19T08:38:25;17.17;;;2.93;;
19084;SDS011;9675;51.538;6.728;2023-11-19T08:40:52;21.07;;;2.60;;
19084;SDS011;9675;51.538;6.728;2023-11-19T08:43:24;27.53;;;5.10;;
19084;SDS011;9675;51.538;6.728;2023-11-19T08:45:51;17.30;;;3.03;;
19084;SDS011;9675;51.538;6.728;2023-11-19T08:48:20;24.73;;;2.80;;
19084;SDS011;9675;51.538;6.728;2023-11-19T08:50:47;23.80;;;2.93;;
19084;SDS011;9675;51.538;6.728;2023-11-19T08:53:14;23.23;;;4.07;;
19084;SDS011;9675;51.538;6.728;2023-11-19T08:55:41;24.70;;;2.93;;
19084;SDS011;9675;51.538;6.728;2023-11-19T08:58:08;16.50;;;2.77;;
19084;SDS011;9675;51.538;6.728;2023-11-19T09:00:35;23.13;;;3.20;;
19084;SDS011;9675;51.538;6.728;2023-11-19T09:03:02;29.73;;;2.83;;
19084;SDS011;9675;51.538;6.728;2023-11-19T09:05:30;14.93;;;2.07;;
19084;SDS011;9675;51.538;6.728;2023-11-19T09:07:57;30.60;;;4.23;;
19084;SDS011;9675;51.538;6.728;2023-11-19T09:10:24;20.97;;;3.17;;
19084;SDS011;9675;51.538;6.728;2023-11-19T09:12:52;26.20;;;3.50;;
19084;SDS011;9675;51.538;6.728;2023-11-19T09:15:19;22.67;;;2.87;;
19084;SDS011;9675;51.538;6.728;2023-11-19T09:17:46;18.07;;;2.53;;
19084;SDS011;9675;51.538;6.728;2023-11-19T09:20:13;14.83;;;2.17;;
19084;SDS011;9675;51.538;6.728;2023-11-19T09:22:42;23.23;;;3.30;;
19084;SDS011;9675;51.538;6.728;2023-11-19T09:25:09;22.30;;;3.00;;
19084;SDS011;9675;51.538;6.728;2023-11-19T09:27:36;13.47;;;2.27;;
19084;SDS011;9675;51.538;6.728;2023-11-19T09:30:03;16.17;;;2.00;;
19084;SDS011;9675;51.538;6.728;2023-11-19T09:32:32;18.73;;;2.57;;
19084;SDS011;9675;51.538;6.728;2023-11-19T09:34:59;16.63;;;2.57;;
19084;SDS011;9675;51.538;6.728;2023-11-19T09:37:27;14.97;;;2.53;;
19084;SDS011;9675;51.538;6.728;2023-11-19T09:39:56;15.23;;;2.90;;
19084;SDS011;9675;51.538;6.728;2023-11-19T09:42:23;15.30;;;2.73;;
19084;SDS011;9675;51.538;6.728;2023-11-19T09:44:51;26.20;;;3.17;;
19084;SDS011;9675;51.538;6.728;2023-11-19T09:47:22;19.37;;;2.97;;
19084;SDS011;9675;51.538;6.728;2023-11-19T09:49:52;18.67;;;3.37;;
19084;SDS011;9675;51.538;6.728;2023-11-19T09:52:20;23.70;;;2.50;;
19084;SDS011;9675;51.538;6.728;2023-11-19T09:54:47;20.10;;;3.73;;
19084;SDS011;9675;51.538;6.728;2023-11-19T09:57:15;15.73;;;2.47;;
19084;SDS011;9675;51.538;6.728;2023-11-19T09:59:43;20.40;;;2.67;;
19084;SDS011;9675;51.538;6.728;2023-11-19T10:02:13;25.67;;;4.30;;
19084;SDS011;9675;51.538;6.728;2023-11-19T10:04:41;20.00;;;3.30;;
19084;SDS011;9675;51.538;6.728;2023-11-19T10:07:12;23.23;;;2.83;;
19084;SDS011;9675;51.538;6.728;2023-11-19T10:09:39;22.23;;;2.70;;
19084;SDS011;9675;51.538;6.728;2023-11-19T10:12:06;20.47;;;3.10;;
19084;SDS011;9675;51.538;6.728;2023-11-19T10:14:35;23.00;;;3.93;;
19084;SDS011;9675;51.538;6.728;2023-11-19T10:17:07;14.47;;;2.30;;
19084;SDS011;9675;51.538;6.728;2023-11-19T10:19:34;18.83;;;2.53;;
19084;SDS011;9675;51.538;6.728;2023-11-19T10:22:02;16.17;;;2.60;;
19084;SDS011;9675;51.538;6.728;2023-11-19T10:24:31;13.93;;;2.23;;
19084;SDS011;9675;51.538;6.728;2023-11-19T10:26:59;22.47;;;3.43;;
19084;SDS011;9675;51.538;6.728;2023-11-19T10:29:29;21.70;;;3.40;;
19084;SDS011;9675;51.538;6.728;2023-11-19T10:31:58;25.70;;;4.50;;
19084;SDS011;9675;51.538;6.728;2023-11-19T10:34:25;17.77;;;3.20;;
19084;SDS011;9675;51.538;6.728;2023-11-19T10:36:54;26.67;;;4.53;;
19084;SDS011;9675;51.538;6.728;2023-11-19T10:39:21;28.30;;;4.77;;
19084;SDS011;9675;51.538;6.728;2023-11-19T10:41:49;22.67;;;4.63;;
19084;SDS011;9675;51.538;6.728;2023-11-19T10:44:31;25.87;;;6.03;;
19084;SDS011;9675;51.538;6.728;2023-11-19T10:47:02;35.40;;;4.43;;
19084;SDS011;9675;51.538;6.728;2023-11-19T10:49:34;10.87;;;2.67;;
19084;SDS011;9675;51.538;6.728;2023-11-19T10:52:03;24.47;;;5.37;;
19084;SDS011;9675;51.538;6.728;2023-11-19T10:54:34;25.80;;;5.13;;
19084;SDS011;9675;51.538;6.728;2023-11-19T10:57:03;27.70;;;4.63;;
19084;SDS011;9675;51.538;6.728;2023-11-19T10:59:35;26.53;;;4.13;;
19084;SDS011;9675;51.538;6.728;2023-11-19T11:02:07;26.60;;;5.97;;
19084;SDS011;9675;51.538;6.728;2023-11-19T11:04:44;10.37;;;2.27;;
19084;SDS011;9675;51.538;6.728;2023-11-19T11:07:14;28.40;;;8.07;;
19084;SDS011;9675;51.538;6.728;2023-11-19T11:09:47;23.80;;;3.83;;
19084;SDS011;9675;51.538;6.728;2023-11-19T11:12:15;16.03;;;4.47;;
19084;SDS011;9675;51.538;6.728;2023-11-19T11:14:48;16.27;;;3.40;;
19084;SDS011;9675;51.538;6.728;2023-11-19T11:17:19;17.90;;;4.10;;
19084;SDS011;9675;51.538;6.728;2023-11-19T11:19:53;24.60;;;4.47;;
19084;SDS011;9675;51.538;6.728;2023-11-19T11:22:20;17.00;;;2.87;;
19084;SDS011;9675;51.538;6.728;2023-11-19T11:27:48;18.63;;;3.47;;
19084;SDS011;9675;51.538;6.728;2023-11-19T11:30:43;10.90;;;3.17;;
19084;SDS011;9675;51.538;6.728;2023-11-19T11:33:34;12.73;;;2.90;;
19084;SDS011;9675;51.538;6.728;2023-11-19T11:36:25;18.57;;;3.13;;
19084;SDS011;9675;51.538;6.728;2023-11-19T11:38:53;15.27;;;2.87;;
19084;SDS011;9675;51.538;6.728;2023-11-19T11:41:26;5.77;;;0.77;;
19084;SDS011;9675;51.538;6.728;2023-11-19T11:43:54;11.47;;;2.10;;
19084;SDS011;9675;51.538;6.728;2023-11-19T11:49:27;17.87;;;2.40;;
19084;SDS011;9675;51.538;6.728;2023-11-19T11:52:03;7.27;;;1.20;;
19084;SDS011;9675;51.538;6.728;2023-11-19T11:54:31;12.90;;;2.30;;
19084;SDS011;9675;51.538;6.728;2023-11-19T11:57:09;20.50;;;2.97;;
19084;SDS011;9675;51.538;6.728;2023-11-19T11:59:50;24.17;;;3.33;;
19084;SDS011;9675;51.538;6.728;2023-11-19T12:02:18;20.97;;;2.27;;
19084;SDS011;9675;51.538;6.728;2023-11-19T12:04:49;12.43;;;2.10;;
19084;SDS011;9675;51.538;6.728;2023-11-19T12:07:18;6.63;;;1.20;;
19084;SDS011;9675;51.538;6.728;2023-11-19T12:09:48;9.33;;;1.77;;
19084;SDS011;9675;51.538;6.728;2023-11-19T12:12:26;12.03;;;2.03;;
19084;SDS011;9675;51.538;6.728;2023-11-19T12:15:04;16.87;;;2.43;;
19084;SDS011;9675;51.538;6.728;2023-11-19T12:17:36;21.77;;;3.23;;
19084;SDS011;9675;51.538;6.728;2023-11-19T12:20:11;16.03;;;2.80;;
19084;SDS011;9675;51.538;6.728;2023-11-19T12:22:39;15.17;;;1.63;;
19084;SDS011;9675;51.538;6.728;2023-11-19T12:25:08;9.50;;;2.10;;
19084;SDS011;9675;51.538;6.728;2023-11-19T12:27:37;32.07;;;3.07;;
19084;SDS011;9675;51.538;6.728;2023-11-19T12:30:07;24.00;;;2.53;;
19084;SDS011;9675;51.538;6.728;2023-11-19T12:32:38;18.00;;;1.70;;
19084;SDS011;9675;51.538;6.728;2023-11-19T12:35:07;15.70;;;2.47;;
19084;SDS011;9675;51.538;6.728;2023-11-19T12:37:44;18.13;;;2.13;;
19084;SDS011;9675;51.538;6.728;2023-11-19T12:40:16;15.87;;;2.77;;
19084;SDS011;9675;51.538;6.728;2023-11-19T12:42:45;11.17;;;1.70;;
19084;SDS011;9675;51.538;6.728;2023-11-19T12:45:13;8.70;;;1.93;;
19084;SDS011;9675;51.538;6.728;2023-11-19T12:47:41;15.53;;;2.20;;
19084;SDS011;9675;51.538;6.728;2023-11-19T12:50:10;19.90;;;3.17;;
19084;SDS011;9675;51.538;6.728;2023-11-19T12:52:37;12.67;;;1.63;;
19084;SDS011;9675;51.538;6.728;2023-11-19T12:57:53;17.47;;;2.20;;
19084;SDS011;9675;51.538;6.728;2023-11-19T13:00:22;20.07;;;3.00;;
19084;SDS011;9675;51.538;6.728;2023-11-19T13:02:50;18.87;;;2.33;;
19084;SDS011;9675;51.538;6.728;2023-11-19T13:05:23;11.93;;;1.90;;
19084;SDS011;9675;51.538;6.728;2023-11-19T13:07:57;15.13;;;2.23;;
19084;SDS011;9675;51.538;6.728;2023-11-19T13:10:27;12.97;;;1.53;;
19084;SDS011;9675;51.538;6.728;2023-11-19T13:13:05;11.83;;;1.93;;
19084;SDS011;9675;51.538;6.728;2023-11-19T13:15:34;13.13;;;2.00;;
19084;SDS011;9675;51.538;6.728;2023-11-19T13:18:02;4.77;;;1.07;;
19084;SDS011;9675;51.538;6.728;2023-11-19T13:20:29;12.47;;;2.10;;
19084;SDS011;9675;51.538;6.728;2023-11-19T13:22:57;11.97;;;1.30;;
19084;SDS011;9675;51.538;6.728;2023-11-19T13:25:26;15.50;;;2.17;;
19084;SDS011;9675;51.538;6.728;2023-11-19T13:27:54;12.63;;;2.10;;
19084;SDS011;9675;51.538;6.728;2023-11-19T13:30:22;12.60;;;2.07;;
19084;SDS011;9675;51.538;6.728;2023-11-19T13:32:50;11.83;;;2.20;;
19084;SDS011;9675;51.538;6.728;2023-11-19T13:35:20;21.90;;;3.27;;
19084;SDS011;9675;51.538;6.728;2023-11-19T13:37:48;14.47;;;2.70;;
19084;SDS011;9675;51.538;6.728;2023-11-19T13:40:15;13.83;;;2.07;;
19084;SDS011;9675;51.538;6.728;2023-11-19T13:42:43;9.80;;;1.27;;
19084;SDS011;9675;51.538;6.728;2023-11-19T13:45:11;11.70;;;1.80;;
19084;SDS011;9675;51.538;6.728;2023-11-19T13:47:40;11.00;;;2.00;;
19084;SDS011;9675;51.538;6.728;2023-11-19T13:50:09;10.60;;;2.13;;
19084;SDS011;9675;51.538;6.728;2023-11-19T13:52:37;11.27;;;1.73;;
19084;SDS011;9675;51.538;6.728;2023-11-19T13:55:06;18.57;;;2.57;;
19084;SDS011;9675;51.538;6.728;2023-11-19T13:57:35;13.00;;;2.00;;
19084;SDS011;9675;51.538;6.728;2023-11-19T14:00:05;4.73;;;1.03;;
19084;SDS011;9675;51.538;6.728;2023-11-19T14:02:37;16.33;;;1.83;;
19084;SDS011;9675;51.538;6.728;2023-11-19T14:05:05;17.07;;;1.93;;
19084;SDS011;9675;51.538;6.728;2023-11-19T14:07:32;11.90;;;2.73;;
19084;SDS011;9675;51.538;6.728;2023-11-19T14:09:59;17.77;;;2.50;;
19084;SDS011;9675;51.538;6.728;2023-11-19T14:12:26;14.73;;;1.80;;
19084;SDS011;9675;51.538;6.728;2023-11-19T14:14:53;13.37;;;2.50;;
19084;SDS011;9675;51.538;6.728;2023-11-19T14:17:22;19.27;;;1.97;;
19084;SDS011;9675;51.538;6.728;2023-11-19T14:19:50;12.70;;;2.70;;
19084;SDS011;9675;51.538;6.728;2023-11-19T14:22:17;28.30;;;14.30;;
19084;SDS011;9675;51.538;6.728;2023-11-19T14:24:44;35.83;;;20.00;;
19084;SDS011;9675;51.538;6.728;2023-11-19T14:27:11;62.77;;;37.33;;
19084;SDS011;9675;51.538;6.728;2023-11-19T14:29:38;40.27;;;21.10;;
19084;SDS011;9675;51.538;6.728;2023-11-19T14:32:05;15.63;;;7.40;;
19084;SDS011;9675;51.538;6.728;2023-11-19T14:34:34;15.70;;;3.07;;
19084;SDS011;9675;51.538;6.728;2023-11-19T14:37:01;15.00;;;2.40;;
19084;SDS011;9675;51.538;6.728;2023-11-19T14:39:28;8.47;;;1.77;;
19084;SDS011;9675;51.538;6.728;2023-11-19T14:41:56;9.37;;;2.30;;
19084;SDS011;9675;51.538;6.728;2023-11-19T14:44:26;17.07;;;2.57;;
19084;SDS011;9675;51.538;6.728;2023-11-19T14:46:54;21.00;;;6.47;;
19084;SDS011;9675;51.538;6.728;2023-11-19T14:49:22;16.70;;;2.67;;
19084;SDS011;9675;51.538;6.728;2023-11-19T14:51:51;23.53;;;7.23;;
19084;SDS011;9675;51.538;6.728;2023-11-19T14:54:18;16.10;;;3.33;;
19084;SDS011;9675;51.538;6.728;2023-11-19T14:56:45;18.67;;;5.27;;
19084;SDS011;9675;51.538;6.728;2023-11-19T14:59:12;28.47;;;4.77;;
19084;SDS011;9675;51.538;6.728;2023-11-19T15:01:39;16.03;;;4.63;;
19084;SDS011;9675;51.538;6.728;2023-11-19T15:04:06;20.43;;;4.93;;
19084;SDS011;9675;51.538;6.728;2023-11-19T15:06:33;21.80;;;8.20;;
19084;SDS011;9675;51.538;6.728;2023-11-19T15:09:02;13.20;;;2.90;;